sensor_id;sensor_type;location;lat;lon;timestamp;temperature;humidity
19805;DHT22;10062;51.052;13.756;2022-11-03T00:00:08;7.00;1.00
19805;DHT22;10062;51.052;13.756;2022-11-03T00:02:42;7.00;1.00
19805;DHT22;10062;51.052;13.756;2022-11-03T00:05:14;7.00;1.00
19805;DHT22;10062;51.052;13.756;2022-11-03T00:08:04;7.10;1.00
19805;DHT22;10062;51.052;13.756;2022-11-03T00:10:35;7.20;1.00
19805;DHT22;10062;51.052;13.756;2022-11-03T00:13:09;7.10;1.00
19805;DHT22;10062;51.052;13.756;2022-11-03T00:15:47;6.90;1.00
19805;DHT22;10062;51.052;13.756;2022-11-03T00:18:19;6.60;1.00
19805;DHT22;10062;51.052;13.756;2022-11-03T00:20:58;6.30;11.40
19805;DHT22;10062;51.052;13.756;2022-11-03T00:23:31;6.10;40.40
19805;DHT22;10062;51.052;13.756;2022-11-03T00:26:05;6.10;62.70
19805;DHT22;10062;51.052;13.756;2022-11-03T00:28:40;6.20;54.50
19805;DHT22;10062;51.052;13.756;2022-11-03T00:31:13;6.00;57.40
19805;DHT22;10062;51.052;13.756;2022-11-03T00:33:45;6.00;75.00
19805;DHT22;10062;51.052;13.756;2022-11-03T00:36:19;6.00;69.20
19805;DHT22;10062;51.052;13.756;2022-11-03T00:38:51;5.90;76.10
19805;DHT22;10062;51.052;13.756;2022-11-03T00:41:24;5.90;82.70
19805;DHT22;10062;51.052;13.756;2022-11-03T00:43:58;5.90;86.80
19805;DHT22;10062;51.052;13.756;2022-11-03T00:46:30;5.90;85.30
19805;DHT22;10062;51.052;13.756;2022-11-03T00:49:05;5.90;90.00
19805;DHT22;10062;51.052;13.756;2022-11-03T00:51:36;5.90;91.00
19805;DHT22;10062;51.052;13.756;2022-11-03T00:54:08;5.90;84.60
19805;DHT22;10062;51.052;13.756;2022-11-03T00:56:41;6.00;90.10
19805;DHT22;10062;51.052;13.756;2022-11-03T00:59:15;6.10;81.00
19805;DHT22;10062;51.052;13.756;2022-11-03T01:01:47;6.00;60.50
19805;DHT22;10062;51.052;13.756;2022-11-03T01:04:18;6.00;57.80
19805;DHT22;10062;51.052;13.756;2022-11-03T01:07:08;5.90;52.50
19805;DHT22;10062;51.052;13.756;2022-11-03T01:09:40;5.80;59.50
19805;DHT22;10062;51.052;13.756;2022-11-03T01:12:15;5.80;69.10
19805;DHT22;10062;51.052;13.756;2022-11-03T01:14:50;6.00;60.80
19805;DHT22;10062;51.052;13.756;2022-11-03T01:17:23;6.10;53.80
19805;DHT22;10062;51.052;13.756;2022-11-03T01:19:56;6.20;24.00
19805;DHT22;10062;51.052;13.756;2022-11-03T01:22:27;6.10;17.40
19805;DHT22;10062;51.052;13.756;2022-11-03T01:24:59;6.00;27.00
19805;DHT22;10062;51.052;13.756;2022-11-03T01:27:33;5.90;31.60
19805;DHT22;10062;51.052;13.756;2022-11-03T01:30:07;5.90;41.60
19805;DHT22;10062;51.052;13.756;2022-11-03T01:32:39;6.10;43.70
19805;DHT22;10062;51.052;13.756;2022-11-03T01:35:11;6.10;28.80
19805;DHT22;10062;51.052;13.756;2022-11-03T01:37:43;6.00;20.50
19805;DHT22;10062;51.052;13.756;2022-11-03T01:40:15;6.10;25.20
19805;DHT22;10062;51.052;13.756;2022-11-03T01:42:47;6.00;12.40
19805;DHT22;10062;51.052;13.756;2022-11-03T01:45:20;5.90;23.10
19805;DHT22;10062;51.052;13.756;2022-11-03T01:47:52;5.80;43.80
19805;DHT22;10062;51.052;13.756;2022-11-03T01:50:24;5.70;50.90
19805;DHT22;10062;51.052;13.756;2022-11-03T01:52:57;5.60;62.50
19805;DHT22;10062;51.052;13.756;2022-11-03T01:55:32;5.50;77.70
19805;DHT22;10062;51.052;13.756;2022-11-03T01:58:09;5.70;90.60
19805;DHT22;10062;51.052;13.756;2022-11-03T02:00:48;5.80;87.90
19805;DHT22;10062;51.052;13.756;2022-11-03T02:03:21;5.90;58.80
19805;DHT22;10062;51.052;13.756;2022-11-03T02:05:54;6.00;50.40
19805;DHT22;10062;51.052;13.756;2022-11-03T02:08:32;6.00;36.20
19805;DHT22;10062;51.052;13.756;2022-11-03T02:11:05;5.90;25.30
19805;DHT22;10062;51.052;13.756;2022-11-03T02:13:50;5.70;29.30
19805;DHT22;10062;51.052;13.756;2022-11-03T02:16:26;5.60;48.80
19805;DHT22;10062;51.052;13.756;2022-11-03T02:19:01;5.50;66.00
19805;DHT22;10062;51.052;13.756;2022-11-03T02:21:42;5.50;80.70
19805;DHT22;10062;51.052;13.756;2022-11-03T02:24:23;5.50;80.10
19805;DHT22;10062;51.052;13.756;2022-11-03T02:26:58;5.50;77.90
19805;DHT22;10062;51.052;13.756;2022-11-03T02:29:29;5.40;80.40
19805;DHT22;10062;51.052;13.756;2022-11-03T02:32:04;5.40;90.50
19805;DHT22;10062;51.052;13.756;2022-11-03T02:34:41;5.30;93.10
19805;DHT22;10062;51.052;13.756;2022-11-03T02:37:21;5.30;96.50
19805;DHT22;10062;51.052;13.756;2022-11-03T02:39:57;5.30;99.90
19805;DHT22;10062;51.052;13.756;2022-11-03T02:42:34;5.30;99.40
19805;DHT22;10062;51.052;13.756;2022-11-03T02:45:09;5.30;99.30
19805;DHT22;10062;51.052;13.756;2022-11-03T02:47:42;5.30;96.90
19805;DHT22;10062;51.052;13.756;2022-11-03T02:50:15;5.30;99.20
19805;DHT22;10062;51.052;13.756;2022-11-03T02:52:49;5.40;95.50
19805;DHT22;10062;51.052;13.756;2022-11-03T02:55:29;5.40;88.20
19805;DHT22;10062;51.052;13.756;2022-11-03T02:58:07;5.40;74.20
19805;DHT22;10062;51.052;13.756;2022-11-03T03:00:46;5.40;66.20
19805;DHT22;10062;51.052;13.756;2022-11-03T03:03:21;5.30;59.60
19805;DHT22;10062;51.052;13.756;2022-11-03T03:05:57;5.20;72.60
19805;DHT22;10062;51.052;13.756;2022-11-03T03:08:30;5.20;84.30
19805;DHT22;10062;51.052;13.756;2022-11-03T03:11:04;5.20;91.70
19805;DHT22;10062;51.052;13.756;2022-11-03T03:13:38;5.20;90.40
19805;DHT22;10062;51.052;13.756;2022-11-03T03:16:14;5.20;91.80
19805;DHT22;10062;51.052;13.756;2022-11-03T03:18:50;5.10;82.10
19805;DHT22;10062;51.052;13.756;2022-11-03T03:21:30;5.10;91.60
19805;DHT22;10062;51.052;13.756;2022-11-03T03:24:07;5.00;95.70
19805;DHT22;10062;51.052;13.756;2022-11-03T03:26:43;5.10;95.80
19805;DHT22;10062;51.052;13.756;2022-11-03T03:29:19;5.00;97.20
19805;DHT22;10062;51.052;13.756;2022-11-03T03:31:54;5.00;98.30
19805;DHT22;10062;51.052;13.756;2022-11-03T03:34:28;5.10;98.10
19805;DHT22;10062;51.052;13.756;2022-11-03T03:37:02;5.10;92.10
19805;DHT22;10062;51.052;13.756;2022-11-03T03:39:37;5.00;95.30
19805;DHT22;10062;51.052;13.756;2022-11-03T03:42:11;5.00;98.70
19805;DHT22;10062;51.052;13.756;2022-11-03T03:44:46;5.10;99.90
19805;DHT22;10062;51.052;13.756;2022-11-03T03:47:21;5.10;96.30
19805;DHT22;10062;51.052;13.756;2022-11-03T03:49:53;5.10;93.40
19805;DHT22;10062;51.052;13.756;2022-11-03T03:52:25;5.10;86.20
19805;DHT22;10062;51.052;13.756;2022-11-03T03:54:58;5.10;79.60
19805;DHT22;10062;51.052;13.756;2022-11-03T03:57:30;5.10;82.70
19805;DHT22;10062;51.052;13.756;2022-11-03T04:00:05;5.30;86.80
19805;DHT22;10062;51.052;13.756;2022-11-03T04:02:43;5.30;72.70
19805;DHT22;10062;51.052;13.756;2022-11-03T04:05:14;5.30;64.60
19805;DHT22;10062;51.052;13.756;2022-11-03T04:07:46;5.40;60.60
19805;DHT22;10062;51.052;13.756;2022-11-03T04:10:21;5.40;54.40
19805;DHT22;10062;51.052;13.756;2022-11-03T04:12:53;5.40;53.70
19805;DHT22;10062;51.052;13.756;2022-11-03T04:15:44;5.40;47.50
19805;DHT22;10062;51.052;13.756;2022-11-03T04:18:33;5.90;42.00
19805;DHT22;10062;51.052;13.756;2022-11-03T04:21:22;5.10;43.60
19805;DHT22;10062;51.052;13.756;2022-11-03T04:24:11;5.10;57.60
19805;DHT22;10062;51.052;13.756;2022-11-03T04:26:43;5.00;71.30
19805;DHT22;10062;51.052;13.756;2022-11-03T04:29:15;4.80;85.80
19805;DHT22;10062;51.052;13.756;2022-11-03T04:31:48;4.70;99.90
19805;DHT22;10062;51.052;13.756;2022-11-03T04:34:20;4.70;99.90
19805;DHT22;10062;51.052;13.756;2022-11-03T04:36:53;4.70;99.90
19805;DHT22;10062;51.052;13.756;2022-11-03T04:39:25;4.70;99.90
19805;DHT22;10062;51.052;13.756;2022-11-03T04:41:56;4.70;99.90
19805;DHT22;10062;51.052;13.756;2022-11-03T04:44:29;4.70;99.90
19805;DHT22;10062;51.052;13.756;2022-11-03T04:47:06;4.70;99.90
19805;DHT22;10062;51.052;13.756;2022-11-03T04:49:39;4.80;99.90
19805;DHT22;10062;51.052;13.756;2022-11-03T04:52:13;4.70;99.90
19805;DHT22;10062;51.052;13.756;2022-11-03T04:54:49;4.80;99.90
19805;DHT22;10062;51.052;13.756;2022-11-03T04:57:21;4.70;99.90
19805;DHT22;10062;51.052;13.756;2022-11-03T04:59:53;4.70;99.90
19805;DHT22;10062;51.052;13.756;2022-11-03T05:02:29;4.90;99.90
19805;DHT22;10062;51.052;13.756;2022-11-03T05:05:07;4.80;99.90
19805;DHT22;10062;51.052;13.756;2022-11-03T05:07:47;4.70;99.90
19805;DHT22;10062;51.052;13.756;2022-11-03T05:10:22;4.70;99.90
19805;DHT22;10062;51.052;13.756;2022-11-03T05:12:55;4.70;99.90
19805;DHT22;10062;51.052;13.756;2022-11-03T05:15:30;5.50;99.90
19805;DHT22;10062;51.052;13.756;2022-11-03T05:18:14;4.70;99.90
19805;DHT22;10062;51.052;13.756;2022-11-03T05:20:49;4.60;99.90
19805;DHT22;10062;51.052;13.756;2022-11-03T05:23:22;4.50;99.90
19805;DHT22;10062;51.052;13.756;2022-11-03T05:25:56;4.50;99.90
19805;DHT22;10062;51.052;13.756;2022-11-03T05:28:31;4.40;99.90
19805;DHT22;10062;51.052;13.756;2022-11-03T05:31:16;4.60;99.90
19805;DHT22;10062;51.052;13.756;2022-11-03T05:33:56;4.70;99.90
19805;DHT22;10062;51.052;13.756;2022-11-03T05:36:29;4.80;99.90
19805;DHT22;10062;51.052;13.756;2022-11-03T05:39:21;4.90;99.90
19805;DHT22;10062;51.052;13.756;2022-11-03T05:41:57;4.70;99.90
19805;DHT22;10062;51.052;13.756;2022-11-03T05:44:32;4.70;99.90
19805;DHT22;10062;51.052;13.756;2022-11-03T05:47:13;4.70;99.90
19805;DHT22;10062;51.052;13.756;2022-11-03T05:49:50;4.70;99.90
19805;DHT22;10062;51.052;13.756;2022-11-03T05:52:25;4.70;99.90
19805;DHT22;10062;51.052;13.756;2022-11-03T05:54:58;4.60;99.90
19805;DHT22;10062;51.052;13.756;2022-11-03T05:57:33;4.60;99.90
19805;DHT22;10062;51.052;13.756;2022-11-03T06:00:18;4.50;99.90
19805;DHT22;10062;51.052;13.756;2022-11-03T06:02:52;4.40;99.90
19805;DHT22;10062;51.052;13.756;2022-11-03T06:05:26;4.50;99.90
19805;DHT22;10062;51.052;13.756;2022-11-03T06:08:00;4.40;99.90
19805;DHT22;10062;51.052;13.756;2022-11-03T06:10:35;4.40;99.90
19805;DHT22;10062;51.052;13.756;2022-11-03T06:13:13;4.40;99.90
19805;DHT22;10062;51.052;13.756;2022-11-03T06:15:47;4.40;99.90
19805;DHT22;10062;51.052;13.756;2022-11-03T06:18:22;4.40;99.90
19805;DHT22;10062;51.052;13.756;2022-11-03T06:21:00;4.40;99.90
19805;DHT22;10062;51.052;13.756;2022-11-03T06:23:35;4.50;99.90
19805;DHT22;10062;51.052;13.756;2022-11-03T06:26:13;4.50;99.90
19805;DHT22;10062;51.052;13.756;2022-11-03T06:28:47;4.50;99.90
19805;DHT22;10062;51.052;13.756;2022-11-03T06:31:21;4.50;99.90
19805;DHT22;10062;51.052;13.756;2022-11-03T06:33:54;4.60;99.90
19805;DHT22;10062;51.052;13.756;2022-11-03T06:36:31;4.60;99.90
19805;DHT22;10062;51.052;13.756;2022-11-03T06:39:12;4.90;99.90
19805;DHT22;10062;51.052;13.756;2022-11-03T06:41:47;4.90;99.90
19805;DHT22;10062;51.052;13.756;2022-11-03T06:44:22;5.00;99.90
19805;DHT22;10062;51.052;13.756;2022-11-03T06:46:55;5.00;99.90
19805;DHT22;10062;51.052;13.756;2022-11-03T06:49:29;4.90;99.90
19805;DHT22;10062;51.052;13.756;2022-11-03T06:52:20;5.00;99.90
19805;DHT22;10062;51.052;13.756;2022-11-03T06:55:12;5.10;99.90
19805;DHT22;10062;51.052;13.756;2022-11-03T06:57:47;5.10;99.90
19805;DHT22;10062;51.052;13.756;2022-11-03T07:00:22;5.20;99.90
19805;DHT22;10062;51.052;13.756;2022-11-03T07:02:57;5.40;99.90
19805;DHT22;10062;51.052;13.756;2022-11-03T07:05:31;5.50;99.90
19805;DHT22;10062;51.052;13.756;2022-11-03T07:08:14;5.50;99.90
19805;DHT22;10062;51.052;13.756;2022-11-03T07:10:49;5.60;99.90
19805;DHT22;10062;51.052;13.756;2022-11-03T07:13:23;5.80;99.90
19805;DHT22;10062;51.052;13.756;2022-11-03T07:15:56;5.90;99.90
19805;DHT22;10062;51.052;13.756;2022-11-03T07:18:30;6.10;99.90
19805;DHT22;10062;51.052;13.756;2022-11-03T07:21:12;6.20;99.90
19805;DHT22;10062;51.052;13.756;2022-11-03T07:23:51;6.20;99.90
19805;DHT22;10062;51.052;13.756;2022-11-03T07:26:22;6.40;99.90
19805;DHT22;10062;51.052;13.756;2022-11-03T07:28:54;6.70;99.90
19805;DHT22;10062;51.052;13.756;2022-11-03T07:31:26;6.80;96.40
19805;DHT22;10062;51.052;13.756;2022-11-03T07:33:58;7.10;83.90
19805;DHT22;10062;51.052;13.756;2022-11-03T07:36:30;7.30;53.50
19805;DHT22;10062;51.052;13.756;2022-11-03T07:39:07;7.50;24.20
19805;DHT22;10062;51.052;13.756;2022-11-03T07:41:40;7.80;1.00
19805;DHT22;10062;51.052;13.756;2022-11-03T07:44:15;8.00;1.00
19805;DHT22;10062;51.052;13.756;2022-11-03T07:46:48;8.10;1.00
19805;DHT22;10062;51.052;13.756;2022-11-03T07:49:25;8.30;1.00
19805;DHT22;10062;51.052;13.756;2022-11-03T07:51:58;8.40;1.00
19805;DHT22;10062;51.052;13.756;2022-11-03T07:54:32;8.60;1.00
19805;DHT22;10062;51.052;13.756;2022-11-03T07:57:12;8.70;1.00
19805;DHT22;10062;51.052;13.756;2022-11-03T07:59:47;8.90;1.00
19805;DHT22;10062;51.052;13.756;2022-11-03T08:02:28;9.20;1.00
19805;DHT22;10062;51.052;13.756;2022-11-03T08:05:02;9.30;1.00
19805;DHT22;10062;51.052;13.756;2022-11-03T08:07:34;9.60;1.00
19805;DHT22;10062;51.052;13.756;2022-11-03T08:10:08;9.80;1.00
19805;DHT22;10062;51.052;13.756;2022-11-03T08:12:40;10.10;1.00
19805;DHT22;10062;51.052;13.756;2022-11-03T08:15:11;10.30;1.00
19805;DHT22;10062;51.052;13.756;2022-11-03T08:17:45;10.60;1.00
19805;DHT22;10062;51.052;13.756;2022-11-03T08:20:17;10.80;1.00
19805;DHT22;10062;51.052;13.756;2022-11-03T08:22:48;11.10;1.00
19805;DHT22;10062;51.052;13.756;2022-11-03T08:25:21;11.40;99.90
19805;DHT22;10062;51.052;13.756;2022-11-03T08:27:53;11.80;1.00
19805;DHT22;10062;51.052;13.756;2022-11-03T08:30:25;12.10;1.00
19805;DHT22;10062;51.052;13.756;2022-11-03T08:32:57;12.40;1.00
19805;DHT22;10062;51.052;13.756;2022-11-03T08:35:28;12.70;1.00
19805;DHT22;10062;51.052;13.756;2022-11-03T08:38:00;12.90;1.00
19805;DHT22;10062;51.052;13.756;2022-11-03T08:40:33;12.90;99.90
19805;DHT22;10062;51.052;13.756;2022-11-03T08:43:05;12.50;1.00
19805;DHT22;10062;51.052;13.756;2022-11-03T08:45:37;12.80;99.90
19805;DHT22;10062;51.052;13.756;2022-11-03T08:48:09;13.00;1.00
19805;DHT22;10062;51.052;13.756;2022-11-03T08:50:40;13.30;99.90
19805;DHT22;10062;51.052;13.756;2022-11-03T08:53:12;13.40;1.00
19805;DHT22;10062;51.052;13.756;2022-11-03T08:55:46;13.50;99.90
19805;DHT22;10062;51.052;13.756;2022-11-03T08:58:17;13.80;1.00
19805;DHT22;10062;51.052;13.756;2022-11-03T09:00:49;14.10;1.00
19805;DHT22;10062;51.052;13.756;2022-11-03T09:03:21;14.50;1.00
19805;DHT22;10062;51.052;13.756;2022-11-03T09:05:53;14.80;99.90
19805;DHT22;10062;51.052;13.756;2022-11-03T09:08:25;15.10;1.00
19805;DHT22;10062;51.052;13.756;2022-11-03T09:10:58;15.30;1.00
19805;DHT22;10062;51.052;13.756;2022-11-03T09:13:30;15.30;1.00
19805;DHT22;10062;51.052;13.756;2022-11-03T09:16:01;15.50;1.00
19805;DHT22;10062;51.052;13.756;2022-11-03T09:18:33;15.80;99.90
19805;DHT22;10062;51.052;13.756;2022-11-03T09:21:05;15.90;99.90
19805;DHT22;10062;51.052;13.756;2022-11-03T09:23:38;16.20;29.00
19805;DHT22;10062;51.052;13.756;2022-11-03T09:26:11;16.50;1.00
19805;DHT22;10062;51.052;13.756;2022-11-03T09:28:43;16.50;1.00
19805;DHT22;10062;51.052;13.756;2022-11-03T09:31:15;16.70;1.00
19805;DHT22;10062;51.052;13.756;2022-11-03T09:33:47;16.90;1.00
19805;DHT22;10062;51.052;13.756;2022-11-03T09:36:18;16.90;1.00
19805;DHT22;10062;51.052;13.756;2022-11-03T09:38:50;16.90;1.00
19805;DHT22;10062;51.052;13.756;2022-11-03T09:41:23;17.10;1.00
19805;DHT22;10062;51.052;13.756;2022-11-03T09:43:56;17.30;1.00
19805;DHT22;10062;51.052;13.756;2022-11-03T09:46:30;17.40;1.00
19805;DHT22;10062;51.052;13.756;2022-11-03T09:49:03;17.80;1.00
19805;DHT22;10062;51.052;13.756;2022-11-03T09:51:35;18.00;1.00
19805;DHT22;10062;51.052;13.756;2022-11-03T09:54:11;18.20;1.00
19805;DHT22;10062;51.052;13.756;2022-11-03T09:56:46;18.40;1.00
19805;DHT22;10062;51.052;13.756;2022-11-03T09:59:19;18.60;1.00
19805;DHT22;10062;51.052;13.756;2022-11-03T10:01:52;18.80;99.90
19805;DHT22;10062;51.052;13.756;2022-11-03T10:04:26;18.80;99.90
19805;DHT22;10062;51.052;13.756;2022-11-03T10:06:58;18.90;99.90
19805;DHT22;10062;51.052;13.756;2022-11-03T10:09:30;18.60;99.90
19805;DHT22;10062;51.052;13.756;2022-11-03T10:12:04;18.70;99.90
19805;DHT22;10062;51.052;13.756;2022-11-03T10:14:35;18.90;99.90
19805;DHT22;10062;51.052;13.756;2022-11-03T10:17:14;19.10;99.90
19805;DHT22;10062;51.052;13.756;2022-11-03T10:19:48;19.40;99.90
19805;DHT22;10062;51.052;13.756;2022-11-03T10:22:21;19.60;99.90
19805;DHT22;10062;51.052;13.756;2022-11-03T10:25:24;19.80;99.90
19805;DHT22;10062;51.052;13.756;2022-11-03T10:28:12;19.80;99.90
19805;DHT22;10062;51.052;13.756;2022-11-03T10:30:53;20.00;99.90
19805;DHT22;10062;51.052;13.756;2022-11-03T10:33:31;20.20;99.90
19805;DHT22;10062;51.052;13.756;2022-11-03T10:36:18;20.30;99.90
19805;DHT22;10062;51.052;13.756;2022-11-03T10:38:52;19.40;99.90
19805;DHT22;10062;51.052;13.756;2022-11-03T10:41:25;19.50;99.90
19805;DHT22;10062;51.052;13.756;2022-11-03T10:44:04;19.60;99.90
19805;DHT22;10062;51.052;13.756;2022-11-03T10:46:38;18.90;99.90
19805;DHT22;10062;51.052;13.756;2022-11-03T10:49:13;19.20;99.90
19805;DHT22;10062;51.052;13.756;2022-11-03T10:51:47;19.10;99.90
19805;DHT22;10062;51.052;13.756;2022-11-03T10:54:21;18.90;99.90
19805;DHT22;10062;51.052;13.756;2022-11-03T10:56:54;18.90;99.90
19805;DHT22;10062;51.052;13.756;2022-11-03T10:59:30;18.50;99.90
19805;DHT22;10062;51.052;13.756;2022-11-03T11:02:07;18.60;99.90
19805;DHT22;10062;51.052;13.756;2022-11-03T11:04:41;18.80;99.90
19805;DHT22;10062;51.052;13.756;2022-11-03T11:07:22;18.90;99.90
19805;DHT22;10062;51.052;13.756;2022-11-03T11:09:55;18.80;99.90
19805;DHT22;10062;51.052;13.756;2022-11-03T11:12:27;18.60;99.90
19805;DHT22;10062;51.052;13.756;2022-11-03T11:15:02;18.70;99.90
19805;DHT22;10062;51.052;13.756;2022-11-03T11:17:44;18.90;99.90
19805;DHT22;10062;51.052;13.756;2022-11-03T11:20:31;19.10;99.90
19805;DHT22;10062;51.052;13.756;2022-11-03T11:26:39;19.10;99.90
19805;DHT22;10062;51.052;13.756;2022-11-03T11:29:38;19.20;99.90
19805;DHT22;10062;51.052;13.756;2022-11-03T11:39:11;19.10;95.40
19805;DHT22;10062;51.052;13.756;2022-11-03T11:42:06;19.10;99.90
19805;DHT22;10062;51.052;13.756;2022-11-03T11:44:57;19.00;99.90
19805;DHT22;10062;51.052;13.756;2022-11-03T11:47:45;19.20;97.00
19805;DHT22;10062;51.052;13.756;2022-11-03T11:50:28;19.20;98.80
19805;DHT22;10062;51.052;13.756;2022-11-03T11:53:10;19.20;98.90
19805;DHT22;10062;51.052;13.756;2022-11-03T11:55:47;19.20;99.90
19805;DHT22;10062;51.052;13.756;2022-11-03T11:58:33;19.20;99.90
19805;DHT22;10062;51.052;13.756;2022-11-03T12:01:20;18.90;99.90
19805;DHT22;10062;51.052;13.756;2022-11-03T12:03:54;18.90;99.90
19805;DHT22;10062;51.052;13.756;2022-11-03T12:06:36;19.00;99.90
19805;DHT22;10062;51.052;13.756;2022-11-03T12:09:16;18.90;99.90
19805;DHT22;10062;51.052;13.756;2022-11-03T12:11:51;18.80;99.90
19805;DHT22;10062;51.052;13.756;2022-11-03T12:14:25;18.50;99.90
19805;DHT22;10062;51.052;13.756;2022-11-03T12:17:31;18.20;99.90
19805;DHT22;10062;51.052;13.756;2022-11-03T12:20:32;18.20;99.90
19805;DHT22;10062;51.052;13.756;2022-11-03T12:23:05;18.50;99.90
19805;DHT22;10062;51.052;13.756;2022-11-03T12:25:37;18.50;99.90
19805;DHT22;10062;51.052;13.756;2022-11-03T12:28:29;18.50;99.90
19805;DHT22;10062;51.052;13.756;2022-11-03T12:31:01;18.60;99.90
19805;DHT22;10062;51.052;13.756;2022-11-03T12:33:33;18.60;99.90
19805;DHT22;10062;51.052;13.756;2022-11-03T12:36:06;18.50;99.90
19805;DHT22;10062;51.052;13.756;2022-11-03T12:38:38;18.30;99.90
19805;DHT22;10062;51.052;13.756;2022-11-03T12:41:09;18.60;99.90
19805;DHT22;10062;51.052;13.756;2022-11-03T12:43:55;18.50;99.90
19805;DHT22;10062;51.052;13.756;2022-11-03T12:46:27;18.40;99.90
19805;DHT22;10062;51.052;13.756;2022-11-03T12:48:59;18.60;99.90
19805;DHT22;10062;51.052;13.756;2022-11-03T12:51:30;18.80;99.90
19805;DHT22;10062;51.052;13.756;2022-11-03T12:54:02;19.00;99.90
19805;DHT22;10062;51.052;13.756;2022-11-03T12:56:34;19.10;99.90
19805;DHT22;10062;51.052;13.756;2022-11-03T12:59:07;19.10;99.90
19805;DHT22;10062;51.052;13.756;2022-11-03T13:01:39;19.20;99.90
19805;DHT22;10062;51.052;13.756;2022-11-03T13:04:11;18.80;99.90
19805;DHT22;10062;51.052;13.756;2022-11-03T13:06:43;18.50;99.90
19805;DHT22;10062;51.052;13.756;2022-11-03T13:09:15;18.60;99.90
19805;DHT22;10062;51.052;13.756;2022-11-03T13:11:46;18.50;99.90
19805;DHT22;10062;51.052;13.756;2022-11-03T13:14:37;18.50;99.90
19805;DHT22;10062;51.052;13.756;2022-11-03T13:17:09;18.20;99.90
19805;DHT22;10062;51.052;13.756;2022-11-03T13:19:41;17.90;99.90
19805;DHT22;10062;51.052;13.756;2022-11-03T13:22:12;17.90;99.90
19805;DHT22;10062;51.052;13.756;2022-11-03T13:24:44;17.90;99.90
19805;DHT22;10062;51.052;13.756;2022-11-03T13:27:16;17.70;99.90
19805;DHT22;10062;51.052;13.756;2022-11-03T13:29:49;17.70;99.90
19805;DHT22;10062;51.052;13.756;2022-11-03T13:32:21;17.80;99.90
19805;DHT22;10062;51.052;13.756;2022-11-03T13:34:53;17.80;99.90
19805;DHT22;10062;51.052;13.756;2022-11-03T13:37:25;17.70;99.90
19805;DHT22;10062;51.052;13.756;2022-11-03T13:39:56;17.90;99.90
19805;DHT22;10062;51.052;13.756;2022-11-03T13:42:28;17.80;99.90
19805;DHT22;10062;51.052;13.756;2022-11-03T13:45:01;17.70;99.90
19805;DHT22;10062;51.052;13.756;2022-11-03T13:47:33;17.40;99.90
19805;DHT22;10062;51.052;13.756;2022-11-03T13:50:06;17.10;99.90
19805;DHT22;10062;51.052;13.756;2022-11-03T13:52:37;17.00;99.90
19805;DHT22;10062;51.052;13.756;2022-11-03T13:55:10;16.50;1.00
19805;DHT22;10062;51.052;13.756;2022-11-03T13:57:42;16.10;1.00
19805;DHT22;10062;51.052;13.756;2022-11-03T14:00:15;16.10;1.00
19805;DHT22;10062;51.052;13.756;2022-11-03T14:02:47;16.20;1.00
19805;DHT22;10062;51.052;13.756;2022-11-03T14:05:20;16.00;1.00
19805;DHT22;10062;51.052;13.756;2022-11-03T14:07:52;15.90;1.00
19805;DHT22;10062;51.052;13.756;2022-11-03T14:10:24;15.90;1.00
19805;DHT22;10062;51.052;13.756;2022-11-03T14:12:55;15.90;1.00
19805;DHT22;10062;51.052;13.756;2022-11-03T14:15:28;15.70;1.00
19805;DHT22;10062;51.052;13.756;2022-11-03T14:17:59;15.40;55.40
19805;DHT22;10062;51.052;13.756;2022-11-03T14:20:31;15.20;99.90
19805;DHT22;10062;51.052;13.756;2022-11-03T14:23:03;14.80;1.00
19805;DHT22;10062;51.052;13.756;2022-11-03T14:25:35;14.70;1.00
19805;DHT22;10062;51.052;13.756;2022-11-03T14:28:06;14.50;99.90
19805;DHT22;10062;51.052;13.756;2022-11-03T14:30:39;14.40;1.00
19805;DHT22;10062;51.052;13.756;2022-11-03T14:33:11;14.20;1.00
19805;DHT22;10062;51.052;13.756;2022-11-03T14:35:43;14.30;1.00
19805;DHT22;10062;51.052;13.756;2022-11-03T14:38:15;14.20;1.00
19805;DHT22;10062;51.052;13.756;2022-11-03T14:40:47;14.00;99.90
19805;DHT22;10062;51.052;13.756;2022-11-03T14:43:36;13.90;1.00
19805;DHT22;10062;51.052;13.756;2022-11-03T14:46:09;13.80;86.10
19805;DHT22;10062;51.052;13.756;2022-11-03T14:48:41;13.70;99.90
19805;DHT22;10062;51.052;13.756;2022-11-03T14:51:13;13.80;99.90
19805;DHT22;10062;51.052;13.756;2022-11-03T14:53:45;13.60;1.00
19805;DHT22;10062;51.052;13.756;2022-11-03T14:56:17;13.60;1.00
19805;DHT22;10062;51.052;13.756;2022-11-03T14:58:48;13.60;1.00
19805;DHT22;10062;51.052;13.756;2022-11-03T15:01:22;13.60;1.00
19805;DHT22;10062;51.052;13.756;2022-11-03T15:03:54;13.70;93.90
19805;DHT22;10062;51.052;13.756;2022-11-03T15:06:26;13.60;1.00
19805;DHT22;10062;51.052;13.756;2022-11-03T15:08:57;13.70;1.00
19805;DHT22;10062;51.052;13.756;2022-11-03T15:11:29;13.70;1.00
19805;DHT22;10062;51.052;13.756;2022-11-03T15:14:02;13.70;1.00
19805;DHT22;10062;51.052;13.756;2022-11-03T15:16:35;13.60;1.00
19805;DHT22;10062;51.052;13.756;2022-11-03T15:19:07;13.50;1.00
19805;DHT22;10062;51.052;13.756;2022-11-03T15:21:39;13.60;99.90
19805;DHT22;10062;51.052;13.756;2022-11-03T15:24:11;13.60;99.90
19805;DHT22;10062;51.052;13.756;2022-11-03T15:26:42;13.50;1.00
19805;DHT22;10062;51.052;13.756;2022-11-03T15:29:14;13.40;1.00
19805;DHT22;10062;51.052;13.756;2022-11-03T15:31:47;13.40;1.00
19805;DHT22;10062;51.052;13.756;2022-11-03T15:34:19;13.20;99.90
19805;DHT22;10062;51.052;13.756;2022-11-03T15:36:51;13.30;99.90
19805;DHT22;10062;51.052;13.756;2022-11-03T15:39:22;13.30;99.90
19805;DHT22;10062;51.052;13.756;2022-11-03T15:41:54;13.10;1.00
19805;DHT22;10062;51.052;13.756;2022-11-03T15:44:26;13.20;1.00
19805;DHT22;10062;51.052;13.756;2022-11-03T15:47:00;14.00;1.00
19805;DHT22;10062;51.052;13.756;2022-11-03T15:49:31;12.90;1.00
19805;DHT22;10062;51.052;13.756;2022-11-03T15:52:04;13.00;1.00
19805;DHT22;10062;51.052;13.756;2022-11-03T15:54:36;12.90;1.00
19805;DHT22;10062;51.052;13.756;2022-11-03T15:57:07;12.90;1.00
19805;DHT22;10062;51.052;13.756;2022-11-03T15:59:39;12.80;1.00
19805;DHT22;10062;51.052;13.756;2022-11-03T16:02:12;12.90;1.00
19805;DHT22;10062;51.052;13.756;2022-11-03T16:04:44;12.80;1.00
19805;DHT22;10062;51.052;13.756;2022-11-03T16:07:16;12.60;99.90
19805;DHT22;10062;51.052;13.756;2022-11-03T16:09:48;12.80;1.00
19805;DHT22;10062;51.052;13.756;2022-11-03T16:12:19;12.70;1.00
19805;DHT22;10062;51.052;13.756;2022-11-03T16:14:53;12.90;1.00
19805;DHT22;10062;51.052;13.756;2022-11-03T16:17:26;12.70;99.90
19805;DHT22;10062;51.052;13.756;2022-11-03T16:19:58;12.80;99.90
19805;DHT22;10062;51.052;13.756;2022-11-03T16:22:30;12.80;1.00
19805;DHT22;10062;51.052;13.756;2022-11-03T16:25:02;12.90;1.00